sensor_id;sensor_type;location;lat;lon;timestamp;pressure;altitude;pressure_sealevel;temperature;humidity
58072;BME280;60383;46.626;18.866;2022-08-03T00:01:16;100482.19;;;23.58;40.72
58072;BME280;60383;46.626;18.866;2022-08-03T00:03:42;100481.31;;;23.34;41.16
58072;BME280;60383;46.626;18.866;2022-08-03T00:06:08;100488.09;;;23.26;41.28
58072;BME280;60383;46.626;18.866;2022-08-03T00:08:33;100482.41;;;23.21;41.71
58072;BME280;60383;46.626;18.866;2022-08-03T00:10:59;100482.19;;;23.35;41.59
58072;BME280;60383;46.626;18.866;2022-08-03T00:13:25;100477.06;;;23.43;42.04
58072;BME280;60383;46.626;18.866;2022-08-03T00:15:51;100480.84;;;23.49;44.55
58072;BME280;60383;46.626;18.866;2022-08-03T00:18:17;100470.88;;;23.41;45.13
58072;BME280;60383;46.626;18.866;2022-08-03T00:20:43;100477.22;;;23.37;45.77
58072;BME280;60383;46.626;18.866;2022-08-03T00:23:08;100478.75;;;23.33;45.66
58072;BME280;60383;46.626;18.866;2022-08-03T00:25:34;100477.75;;;23.15;45.66
58072;BME280;60383;46.626;18.866;2022-08-03T00:28:02;100475.22;;;23.25;44.29
58072;BME280;60383;46.626;18.866;2022-08-03T00:30:28;100472.25;;;23.08;43.50
58072;BME280;60383;46.626;18.866;2022-08-03T00:32:54;100468.25;;;23.04;43.34
58072;BME280;60383;46.626;18.866;2022-08-03T00:35:19;100470.66;;;23.01;43.24
58072;BME280;60383;46.626;18.866;2022-08-03T00:37:45;100467.63;;;23.02;43.09
58072;BME280;60383;46.626;18.866;2022-08-03T00:40:13;100470.06;;;22.98;43.11
58072;BME280;60383;46.626;18.866;2022-08-03T00:42:55;100470.44;;;23.02;43.29
58072;BME280;60383;46.626;18.866;2022-08-03T00:45:23;100466.63;;;22.96;43.25
58072;BME280;60383;46.626;18.866;2022-08-03T00:47:49;100474.50;;;22.88;43.16
58072;BME280;60383;46.626;18.866;2022-08-03T00:50:15;100474.63;;;22.81;43.31
58072;BME280;60383;46.626;18.866;2022-08-03T00:52:41;100472.53;;;22.76;43.76
58072;BME280;60383;46.626;18.866;2022-08-03T00:55:07;100470.78;;;22.63;43.77
58072;BME280;60383;46.626;18.866;2022-08-03T00:57:32;100467.41;;;22.61;44.32
58072;BME280;60383;46.626;18.866;2022-08-03T00:59:58;100469.06;;;22.62;44.54
58072;BME280;60383;46.626;18.866;2022-08-03T01:02:27;100471.09;;;22.43;45.00
58072;BME280;60383;46.626;18.866;2022-08-03T01:04:53;100473.63;;;22.08;45.46
58072;BME280;60383;46.626;18.866;2022-08-03T01:10:16;100472.69;;;21.95;45.43
58072;BME280;60383;46.626;18.866;2022-08-03T01:13:03;100473.97;;;21.99;45.17
58072;BME280;60383;46.626;18.866;2022-08-03T01:15:49;100470.44;;;21.85;45.49
58072;BME280;60383;46.626;18.866;2022-08-03T01:19:22;100480.91;;;21.72;45.92
58072;BME280;60383;46.626;18.866;2022-08-03T01:21:30;100475.19;;;22.04;46.00
58072;BME280;60383;46.626;18.866;2022-08-03T01:24:04;100474.63;;;22.13;45.40
58072;BME280;60383;46.626;18.866;2022-08-03T01:29:07;100474.78;;;22.18;45.04
58072;BME280;60383;46.626;18.866;2022-08-03T01:31:48;100479.91;;;22.22;45.24
58072;BME280;60383;46.626;18.866;2022-08-03T01:34:19;100480.44;;;22.12;45.62
58072;BME280;60383;46.626;18.866;2022-08-03T01:36:51;100484.72;;;22.14;45.75
58072;BME280;60383;46.626;18.866;2022-08-03T01:39:20;100477.75;;;22.24;45.66
58072;BME280;60383;46.626;18.866;2022-08-03T01:41:58;100485.09;;;22.18;45.80
58072;BME280;60383;46.626;18.866;2022-08-03T01:44:29;100483.84;;;22.14;45.93
58072;BME280;60383;46.626;18.866;2022-08-03T01:47:00;100479.03;;;22.21;46.08
58072;BME280;60383;46.626;18.866;2022-08-03T01:49:29;100473.41;;;22.09;46.06
58072;BME280;60383;46.626;18.866;2022-08-03T01:51:58;100476.88;;;22.05;46.34
58072;BME280;60383;46.626;18.866;2022-08-03T01:54:26;100472.00;;;22.00;46.17
58072;BME280;60383;46.626;18.866;2022-08-03T01:56:55;100473.56;;;21.96;46.39
58072;BME280;60383;46.626;18.866;2022-08-03T01:59:22;100472.69;;;21.77;47.14
58072;BME280;60383;46.626;18.866;2022-08-03T02:01:52;100470.06;;;21.82;47.05
58072;BME280;60383;46.626;18.866;2022-08-03T02:04:20;100464.19;;;21.72;47.23
58072;BME280;60383;46.626;18.866;2022-08-03T02:06:47;100465.81;;;21.29;48.16
58072;BME280;60383;46.626;18.866;2022-08-03T02:09:15;100464.31;;;21.58;47.22
58072;BME280;60383;46.626;18.866;2022-08-03T02:11:43;100464.34;;;21.51;47.46
58072;BME280;60383;46.626;18.866;2022-08-03T02:14:10;100466.56;;;21.43;47.76
58072;BME280;60383;46.626;18.866;2022-08-03T02:16:36;100463.66;;;21.56;47.64
58072;BME280;60383;46.626;18.866;2022-08-03T02:19:04;100475.00;;;21.61;47.82
58072;BME280;60383;46.626;18.866;2022-08-03T02:21:32;100468.88;;;21.71;47.48
58072;BME280;60383;46.626;18.866;2022-08-03T02:24:00;100469.44;;;21.80;47.11
58072;BME280;60383;46.626;18.866;2022-08-03T02:26:29;100471.47;;;21.73;47.23
58072;BME280;60383;46.626;18.866;2022-08-03T02:29:05;100469.66;;;21.60;47.51
58072;BME280;60383;46.626;18.866;2022-08-03T02:31:33;100469.75;;;21.46;47.95
58072;BME280;60383;46.626;18.866;2022-08-03T02:34:07;100462.41;;;21.52;47.96
58072;BME280;60383;46.626;18.866;2022-08-03T02:36:37;100466.03;;;21.52;47.88
58072;BME280;60383;46.626;18.866;2022-08-03T02:39:05;100474.78;;;21.37;48.34
58072;BME280;60383;46.626;18.866;2022-08-03T02:41:36;100475.97;;;21.48;48.46
58072;BME280;60383;46.626;18.866;2022-08-03T02:44:07;100469.88;;;21.58;48.84
58072;BME280;60383;46.626;18.866;2022-08-03T02:46:37;100468.19;;;21.50;50.04
58072;BME280;60383;46.626;18.866;2022-08-03T02:49:05;100479.94;;;21.59;50.26
58072;BME280;60383;46.626;18.866;2022-08-03T02:51:33;100469.19;;;21.63;49.50
58072;BME280;60383;46.626;18.866;2022-08-03T02:54:02;100473.94;;;21.55;49.52
58072;BME280;60383;46.626;18.866;2022-08-03T02:56:28;100478.78;;;21.42;48.98
58072;BME280;60383;46.626;18.866;2022-08-03T02:58:57;100474.28;;;21.41;48.61
58072;BME280;60383;46.626;18.866;2022-08-03T03:01:24;100474.78;;;21.37;48.55
58072;BME280;60383;46.626;18.866;2022-08-03T03:03:53;100480.16;;;21.32;48.36
58072;BME280;60383;46.626;18.866;2022-08-03T03:06:20;100483.84;;;21.26;48.66
58072;BME280;60383;46.626;18.866;2022-08-03T03:08:47;100474.72;;;20.87;49.66
58072;BME280;60383;46.626;18.866;2022-08-03T03:11:14;100476.75;;;20.73;50.61
58072;BME280;60383;46.626;18.866;2022-08-03T03:13:42;100479.09;;;20.69;51.03
58072;BME280;60383;46.626;18.866;2022-08-03T03:16:11;100490.13;;;20.89;50.72
58072;BME280;60383;46.626;18.866;2022-08-03T03:18:37;100486.59;;;21.01;50.33
58072;BME280;60383;46.626;18.866;2022-08-03T03:21:04;100482.19;;;21.18;49.78
58072;BME280;60383;46.626;18.866;2022-08-03T03:23:34;100486.22;;;21.22;49.68
58072;BME280;60383;46.626;18.866;2022-08-03T03:26:00;100486.63;;;21.26;49.40
58072;BME280;60383;46.626;18.866;2022-08-03T03:28:27;100493.50;;;21.23;49.47
58072;BME280;60383;46.626;18.866;2022-08-03T03:30:53;100492.19;;;21.26;50.20
58072;BME280;60383;46.626;18.866;2022-08-03T03:33:19;100489.09;;;21.41;50.68
58072;BME280;60383;46.626;18.866;2022-08-03T03:35:45;100493.75;;;21.47;50.64
58072;BME280;60383;46.626;18.866;2022-08-03T03:38:11;100495.53;;;21.35;51.05
58072;BME280;60383;46.626;18.866;2022-08-03T03:40:37;100494.03;;;21.39;50.94
58072;BME280;60383;46.626;18.866;2022-08-03T03:43:07;100495.53;;;21.35;51.98
58072;BME280;60383;46.626;18.866;2022-08-03T03:45:33;100494.97;;;21.26;52.15
58072;BME280;60383;46.626;18.866;2022-08-03T03:48:00;100493.56;;;21.17;52.14
58072;BME280;60383;46.626;18.866;2022-08-03T03:50:27;100496.13;;;21.18;52.33
58072;BME280;60383;46.626;18.866;2022-08-03T03:52:54;100490.03;;;21.03;52.47
58072;BME280;60383;46.626;18.866;2022-08-03T03:55:19;100492.94;;;21.15;51.83
58072;BME280;60383;46.626;18.866;2022-08-03T03:57:45;100500.38;;;21.21;51.72
58072;BME280;60383;46.626;18.866;2022-08-03T04:00:12;100504.13;;;21.33;51.63
58072;BME280;60383;46.626;18.866;2022-08-03T04:02:38;100504.94;;;21.41;51.39
58072;BME280;60383;46.626;18.866;2022-08-03T04:05:04;100505.09;;;21.46;51.83
58072;BME280;60383;46.626;18.866;2022-08-03T04:07:58;100505.00;;;21.59;52.23
58072;BME280;60383;46.626;18.866;2022-08-03T04:10:47;100498.31;;;21.67;52.28
58072;BME280;60383;46.626;18.866;2022-08-03T04:13:29;100506.19;;;21.70;52.71
58072;BME280;60383;46.626;18.866;2022-08-03T04:15:57;100503.59;;;21.75;52.65
58072;BME280;60383;46.626;18.866;2022-08-03T04:18:24;100506.94;;;21.84;52.70
58072;BME280;60383;46.626;18.866;2022-08-03T04:20:51;100512.03;;;21.87;52.89
58072;BME280;60383;46.626;18.866;2022-08-03T04:23:20;100505.31;;;21.95;52.81
58072;BME280;60383;46.626;18.866;2022-08-03T04:25:48;100513.28;;;21.91;53.36
58072;BME280;60383;46.626;18.866;2022-08-03T04:28:14;100515.19;;;21.91;53.46
58072;BME280;60383;46.626;18.866;2022-08-03T04:30:44;100530.06;;;21.84;54.23
58072;BME280;60383;46.626;18.866;2022-08-03T04:33:13;100527.53;;;22.01;53.16
58072;BME280;60383;46.626;18.866;2022-08-03T04:35:42;100518.19;;;21.96;52.38
58072;BME280;60383;46.626;18.866;2022-08-03T04:38:12;100524.84;;;22.13;51.31
58072;BME280;60383;46.626;18.866;2022-08-03T04:40:40;100525.84;;;22.19;50.65
58072;BME280;60383;46.626;18.866;2022-08-03T04:43:08;100521.09;;;21.82;50.55
58072;BME280;60383;46.626;18.866;2022-08-03T04:45:34;100520.56;;;22.11;49.60
58072;BME280;60383;46.626;18.866;2022-08-03T04:48:01;100531.84;;;22.41;49.25
58072;BME280;60383;46.626;18.866;2022-08-03T04:50:27;100521.81;;;22.52;48.48
58072;BME280;60383;46.626;18.866;2022-08-03T04:52:53;100519.81;;;22.59;48.52
58072;BME280;60383;46.626;18.866;2022-08-03T04:57:51;100526.41;;;22.77;47.85
58072;BME280;60383;46.626;18.866;2022-08-03T05:00:17;100535.09;;;22.57;48.34
58072;BME280;60383;46.626;18.866;2022-08-03T05:02:42;100531.94;;;22.84;48.09
58072;BME280;60383;46.626;18.866;2022-08-03T05:05:08;100527.84;;;22.98;47.47
58072;BME280;60383;46.626;18.866;2022-08-03T05:07:33;100532.53;;;23.16;47.44
58072;BME280;60383;46.626;18.866;2022-08-03T05:09:59;100526.75;;;23.29;47.01
58072;BME280;60383;46.626;18.866;2022-08-03T05:12:24;100533.69;;;23.39;46.55
58072;BME280;60383;46.626;18.866;2022-08-03T05:14:50;100534.06;;;23.54;46.38
58072;BME280;60383;46.626;18.866;2022-08-03T05:17:15;100539.44;;;23.68;46.49
58072;BME280;60383;46.626;18.866;2022-08-03T05:19:41;100535.94;;;23.84;45.66
58072;BME280;60383;46.626;18.866;2022-08-03T05:22:06;100539.09;;;24.00;45.87
58072;BME280;60383;46.626;18.866;2022-08-03T05:24:32;100539.34;;;24.10;45.69
58072;BME280;60383;46.626;18.866;2022-08-03T05:26:57;100537.63;;;24.21;45.22
58072;BME280;60383;46.626;18.866;2022-08-03T05:29:22;100540.16;;;24.22;48.26
58072;BME280;60383;46.626;18.866;2022-08-03T05:31:48;100539.78;;;24.31;49.36
58072;BME280;60383;46.626;18.866;2022-08-03T05:34:13;100548.47;;;24.05;50.42
58072;BME280;60383;46.626;18.866;2022-08-03T05:36:39;100550.50;;;23.63;51.73
58072;BME280;60383;46.626;18.866;2022-08-03T05:39:04;100550.25;;;23.10;53.21
58072;BME280;60383;46.626;18.866;2022-08-03T05:41:30;100554.50;;;23.67;51.89
58072;BME280;60383;46.626;18.866;2022-08-03T05:43:55;100551.38;;;23.87;51.97
58072;BME280;60383;46.626;18.866;2022-08-03T05:46:21;100558.63;;;23.64;51.69
58072;BME280;60383;46.626;18.866;2022-08-03T05:48:47;100550.41;;;24.05;50.58
58072;BME280;60383;46.626;18.866;2022-08-03T05:51:12;100548.91;;;24.26;51.11
58072;BME280;60383;46.626;18.866;2022-08-03T05:53:42;100554.16;;;23.87;51.91
58072;BME280;60383;46.626;18.866;2022-08-03T05:56:08;100557.78;;;23.64;51.56
58072;BME280;60383;46.626;18.866;2022-08-03T05:58:33;100556.09;;;23.74;51.42
58072;BME280;60383;46.626;18.866;2022-08-03T06:00:59;100566.22;;;24.23;50.93
58072;BME280;60383;46.626;18.866;2022-08-03T06:03:24;100562.25;;;24.48;48.65
58072;BME280;60383;46.626;18.866;2022-08-03T06:05:50;100568.59;;;24.67;49.19
58072;BME280;60383;46.626;18.866;2022-08-03T06:08:15;100561.69;;;24.86;48.20
58072;BME280;60383;46.626;18.866;2022-08-03T06:10:41;100561.13;;;25.01;47.13
58072;BME280;60383;46.626;18.866;2022-08-03T06:13:06;100561.88;;;24.97;47.37
58072;BME280;60383;46.626;18.866;2022-08-03T06:15:31;100552.91;;;24.95;47.32
58072;BME280;60383;46.626;18.866;2022-08-03T06:17:59;100559.28;;;25.07;47.24
58072;BME280;60383;46.626;18.866;2022-08-03T06:20:25;100563.97;;;25.18;46.41
58072;BME280;60383;46.626;18.866;2022-08-03T06:22:50;100563.22;;;25.23;47.01
58072;BME280;60383;46.626;18.866;2022-08-03T06:25:16;100564.88;;;25.36;45.77
58072;BME280;60383;46.626;18.866;2022-08-03T06:27:42;100566.34;;;25.39;46.06
58072;BME280;60383;46.626;18.866;2022-08-03T06:30:09;100565.91;;;25.47;46.17
58072;BME280;60383;46.626;18.866;2022-08-03T06:32:36;100570.25;;;25.55;45.84
58072;BME280;60383;46.626;18.866;2022-08-03T06:35:02;100572.53;;;25.58;45.82
58072;BME280;60383;46.626;18.866;2022-08-03T06:37:27;100572.13;;;25.66;45.11
58072;BME280;60383;46.626;18.866;2022-08-03T06:39:53;100574.91;;;25.83;45.67
58072;BME280;60383;46.626;18.866;2022-08-03T06:42:18;100568.03;;;25.91;45.63
58072;BME280;60383;46.626;18.866;2022-08-03T06:44:44;100580.13;;;26.08;45.50
58072;BME280;60383;46.626;18.866;2022-08-03T06:47:09;100587.56;;;26.20;45.22
58072;BME280;60383;46.626;18.866;2022-08-03T06:49:35;100579.38;;;26.35;45.12
58072;BME280;60383;46.626;18.866;2022-08-03T06:52:01;100590.22;;;26.49;44.74
58072;BME280;60383;46.626;18.866;2022-08-03T06:54:26;100589.00;;;26.61;44.66
58072;BME280;60383;46.626;18.866;2022-08-03T06:56:52;100593.16;;;26.76;44.70
58072;BME280;60383;46.626;18.866;2022-08-03T06:59:18;100594.81;;;26.99;43.77
58072;BME280;60383;46.626;18.866;2022-08-03T07:01:43;100587.84;;;27.02;43.93
58072;BME280;60383;46.626;18.866;2022-08-03T07:04:09;100587.56;;;27.03;43.76
58072;BME280;60383;46.626;18.866;2022-08-03T07:06:36;100587.38;;;27.10;44.09
58072;BME280;60383;46.626;18.866;2022-08-03T07:09:02;100584.22;;;27.06;43.54
58072;BME280;60383;46.626;18.866;2022-08-03T07:11:28;100588.41;;;27.04;44.01
58072;BME280;60383;46.626;18.866;2022-08-03T07:13:53;100590.88;;;26.56;45.26
58072;BME280;60383;46.626;18.866;2022-08-03T07:16:18;100589.19;;;26.55;44.68
58072;BME280;60383;46.626;18.866;2022-08-03T07:18:44;100584.78;;;25.86;46.76
58072;BME280;60383;46.626;18.866;2022-08-03T07:21:10;100584.38;;;26.33;45.61
58072;BME280;60383;46.626;18.866;2022-08-03T07:23:37;100591.34;;;26.08;46.13
58072;BME280;60383;46.626;18.866;2022-08-03T07:26:02;100588.69;;;26.58;45.16
58072;BME280;60383;46.626;18.866;2022-08-03T07:28:28;100579.94;;;26.76;44.93
58072;BME280;60383;46.626;18.866;2022-08-03T07:30:54;100581.56;;;26.72;44.57
58072;BME280;60383;46.626;18.866;2022-08-03T07:33:19;100582.47;;;27.00;44.27
58072;BME280;60383;46.626;18.866;2022-08-03T07:35:45;100586.34;;;27.21;43.72
58072;BME280;60383;46.626;18.866;2022-08-03T07:38:10;100590.72;;;27.34;43.46
58072;BME280;60383;46.626;18.866;2022-08-03T07:40:36;100583.88;;;27.52;43.66
58072;BME280;60383;46.626;18.866;2022-08-03T07:43:01;100590.81;;;27.72;42.80
58072;BME280;60383;46.626;18.866;2022-08-03T07:45:29;100585.78;;;27.79;42.55
58072;BME280;60383;46.626;18.866;2022-08-03T07:47:55;100583.91;;;27.90;42.09
58072;BME280;60383;46.626;18.866;2022-08-03T07:50:21;100583.66;;;27.97;41.89
58072;BME280;60383;46.626;18.866;2022-08-03T07:52:47;100586.25;;;28.03;41.61
58072;BME280;60383;46.626;18.866;2022-08-03T07:55:12;100582.00;;;28.01;41.74
58072;BME280;60383;46.626;18.866;2022-08-03T07:57:38;100577.69;;;28.20;41.02
58072;BME280;60383;46.626;18.866;2022-08-03T08:00:06;100577.41;;;28.27;41.43
58072;BME280;60383;46.626;18.866;2022-08-03T08:02:35;100576.31;;;28.33;40.90
58072;BME280;60383;46.626;18.866;2022-08-03T08:05:00;100578.59;;;28.36;40.80
58072;BME280;60383;46.626;18.866;2022-08-03T08:07:26;100580.31;;;28.43;40.29
58072;BME280;60383;46.626;18.866;2022-08-03T08:09:51;100576.69;;;28.47;40.22
58072;BME280;60383;46.626;18.866;2022-08-03T08:12:17;100583.78;;;28.60;40.30
58072;BME280;60383;46.626;18.866;2022-08-03T08:14:42;100577.66;;;28.74;39.69
58072;BME280;60383;46.626;18.866;2022-08-03T08:17:11;100586.41;;;28.72;40.23
58072;BME280;60383;46.626;18.866;2022-08-03T08:19:36;100589.16;;;28.62;40.08
58072;BME280;60383;46.626;18.866;2022-08-03T08:22:02;100589.69;;;28.59;40.48
58072;BME280;60383;46.626;18.866;2022-08-03T08:24:27;100581.94;;;28.87;40.62
58072;BME280;60383;46.626;18.866;2022-08-03T08:26:55;100585.38;;;28.99;40.54
58072;BME280;60383;46.626;18.866;2022-08-03T08:29:20;100593.16;;;28.71;40.39
58072;BME280;60383;46.626;18.866;2022-08-03T08:31:48;100590.94;;;28.78;39.78
58072;BME280;60383;46.626;18.866;2022-08-03T08:34:14;100585.38;;;28.99;39.97
58072;BME280;60383;46.626;18.866;2022-08-03T08:36:40;100593.59;;;29.21;39.28
58072;BME280;60383;46.626;18.866;2022-08-03T08:39:06;100584.34;;;29.41;39.39
58072;BME280;60383;46.626;18.866;2022-08-03T08:41:31;100580.44;;;29.58;37.95
58072;BME280;60383;46.626;18.866;2022-08-03T08:43:59;100572.78;;;29.63;37.82
58072;BME280;60383;46.626;18.866;2022-08-03T08:46:25;100584.81;;;28.97;38.93
58072;BME280;60383;46.626;18.866;2022-08-03T08:48:52;100577.59;;;29.47;38.88
58072;BME280;60383;46.626;18.866;2022-08-03T08:51:19;100576.78;;;29.68;38.75
58072;BME280;60383;46.626;18.866;2022-08-03T08:53:48;100586.34;;;29.82;37.82
58072;BME280;60383;46.626;18.866;2022-08-03T08:56:14;100575.34;;;30.01;38.01
58072;BME280;60383;46.626;18.866;2022-08-03T08:58:45;100578.41;;;30.31;37.54
58072;BME280;60383;46.626;18.866;2022-08-03T09:01:11;100578.38;;;30.41;36.09
58072;BME280;60383;46.626;18.866;2022-08-03T09:03:37;100573.81;;;30.45;37.42
58072;BME280;60383;46.626;18.866;2022-08-03T09:06:03;100570.91;;;30.76;37.22
58072;BME280;60383;46.626;18.866;2022-08-03T09:08:29;100580.13;;;31.02;37.20
58072;BME280;60383;46.626;18.866;2022-08-03T09:10:55;100579.19;;;31.17;36.27
58072;BME280;60383;46.626;18.866;2022-08-03T09:13:20;100580.06;;;31.07;36.67
58072;BME280;60383;46.626;18.866;2022-08-03T09:15:46;100581.28;;;31.41;35.16
58072;BME280;60383;46.626;18.866;2022-08-03T09:18:27;100574.16;;;31.49;35.11
58072;BME280;60383;46.626;18.866;2022-08-03T09:21:11;100585.69;;;31.58;35.63
58072;BME280;60383;46.626;18.866;2022-08-03T09:23:47;100581.72;;;31.59;34.78
58072;BME280;60383;46.626;18.866;2022-08-03T09:26:23;100567.03;;;31.57;35.32
58072;BME280;60383;46.626;18.866;2022-08-03T09:29:00;100572.28;;;31.74;34.02
58072;BME280;60383;46.626;18.866;2022-08-03T09:31:30;100578.56;;;32.00;33.71
58072;BME280;60383;46.626;18.866;2022-08-03T09:33:56;100568.50;;;31.89;34.26
58072;BME280;60383;46.626;18.866;2022-08-03T09:36:47;100576.16;;;32.12;33.87
58072;BME280;60383;46.626;18.866;2022-08-03T09:39:17;100577.25;;;31.87;34.47
58072;BME280;60383;46.626;18.866;2022-08-03T09:41:48;100571.78;;;31.27;34.43
58072;BME280;60383;46.626;18.866;2022-08-03T09:44:44;100567.59;;;31.19;35.00
58072;BME280;60383;46.626;18.866;2022-08-03T09:47:10;100561.88;;;31.64;34.98
58072;BME280;60383;46.626;18.866;2022-08-03T09:52:16;100559.47;;;32.11;32.71
58072;BME280;60383;46.626;18.866;2022-08-03T09:54:50;100560.75;;;32.29;31.79
58072;BME280;60383;46.626;18.866;2022-08-03T09:57:23;100555.59;;;32.55;31.50
58072;BME280;60383;46.626;18.866;2022-08-03T09:59:53;100556.69;;;32.59;31.41
58072;BME280;60383;46.626;18.866;2022-08-03T10:02:28;100541.22;;;32.71;31.34
58072;BME280;60383;46.626;18.866;2022-08-03T10:04:53;100549.19;;;33.12;29.44
58072;BME280;60383;46.626;18.866;2022-08-03T10:07:23;100540.81;;;33.40;29.59
58072;BME280;60383;46.626;18.866;2022-08-03T10:10:07;100539.44;;;33.56;29.12
58072;BME280;60383;46.626;18.866;2022-08-03T10:12:34;100536.97;;;33.50;28.74
58072;BME280;60383;46.626;18.866;2022-08-03T10:14:59;100535.03;;;33.31;28.27
58072;BME280;60383;46.626;18.866;2022-08-03T10:17:25;100531.72;;;33.43;29.23
58072;BME280;60383;46.626;18.866;2022-08-03T10:19:50;100528.19;;;33.65;28.87
58072;BME280;60383;46.626;18.866;2022-08-03T10:22:21;100533.09;;;33.46;28.16
58072;BME280;60383;46.626;18.866;2022-08-03T10:25:11;100525.34;;;33.32;28.28
58072;BME280;60383;46.626;18.866;2022-08-03T10:27:41;100527.66;;;33.30;28.40
58072;BME280;60383;46.626;18.866;2022-08-03T10:30:11;100524.84;;;33.44;27.81
58072;BME280;60383;46.626;18.866;2022-08-03T10:32:47;100511.09;;;32.80;29.06
58072;BME280;60383;46.626;18.866;2022-08-03T10:35:14;100520.19;;;33.34;28.49
58072;BME280;60383;46.626;18.866;2022-08-03T10:37:42;100520.97;;;33.40;28.11
58072;BME280;60383;46.626;18.866;2022-08-03T10:40:21;100515.84;;;33.42;28.33
58072;BME280;60383;46.626;18.866;2022-08-03T10:42:49;100510.31;;;33.65;27.68
58072;BME280;60383;46.626;18.866;2022-08-03T10:45:23;100508.88;;;33.67;27.10
58072;BME280;60383;46.626;18.866;2022-08-03T10:47:50;100511.28;;;33.74;26.85
58072;BME280;60383;46.626;18.866;2022-08-03T10:50:18;100507.03;;;33.57;27.22
58072;BME280;60383;46.626;18.866;2022-08-03T10:55:50;100499.94;;;33.74;27.11
58072;BME280;60383;46.626;18.866;2022-08-03T11:01:07;100503.78;;;33.83;26.55
58072;BME280;60383;46.626;18.866;2022-08-03T11:03:32;100499.47;;;33.86;26.19
58072;BME280;60383;46.626;18.866;2022-08-03T11:06:15;100495.28;;;33.78;26.57
58072;BME280;60383;46.626;18.866;2022-08-03T11:08:44;100499.16;;;34.01;25.88
58072;BME280;60383;46.626;18.866;2022-08-03T11:16:38;100480.94;;;34.02;23.82
58072;BME280;60383;46.626;18.866;2022-08-03T11:19:08;100483.78;;;33.03;24.64
58072;BME280;60383;46.626;18.866;2022-08-03T11:35:10;100468.75;;;34.02;24.37
58072;BME280;60383;46.626;18.866;2022-08-03T11:45:56;100465.84;;;34.71;23.21
58072;BME280;60383;46.626;18.866;2022-08-03T11:48:22;100457.22;;;34.77;22.94
58072;BME280;60383;46.626;18.866;2022-08-03T11:50:48;100467.47;;;34.64;22.86
58072;BME280;60383;46.626;18.866;2022-08-03T11:53:16;100459.81;;;34.50;23.02
58072;BME280;60383;46.626;18.866;2022-08-03T11:55:44;100458.22;;;33.41;24.02
58072;BME280;60383;46.626;18.866;2022-08-03T11:58:20;100453.03;;;32.72;25.37
58072;BME280;60383;46.626;18.866;2022-08-03T12:00:46;100454.31;;;33.37;25.41
58072;BME280;60383;46.626;18.866;2022-08-03T12:03:14;100448.44;;;33.48;25.02
58072;BME280;60383;46.626;18.866;2022-08-03T12:05:51;100439.00;;;33.52;24.71
58072;BME280;60383;46.626;18.866;2022-08-03T12:10:48;100440.47;;;33.97;23.91
58072;BME280;60383;46.626;18.866;2022-08-03T12:13:15;100438.09;;;32.47;25.58
58072;BME280;60383;46.626;18.866;2022-08-03T12:15:40;100434.50;;;32.99;25.26
58072;BME280;60383;46.626;18.866;2022-08-03T12:18:14;100428.31;;;33.63;24.41
58072;BME280;60383;46.626;18.866;2022-08-03T12:20:41;100429.19;;;34.05;24.47
58072;BME280;60383;46.626;18.866;2022-08-03T12:23:07;100428.25;;;34.38;24.30
58072;BME280;60383;46.626;18.866;2022-08-03T12:25:34;100434.97;;;33.86;23.66
58072;BME280;60383;46.626;18.866;2022-08-03T12:30:34;100420.53;;;33.03;25.23
58072;BME280;60383;46.626;18.866;2022-08-03T12:33:28;100428.88;;;32.75;25.45
58072;BME280;60383;46.626;18.866;2022-08-03T12:36:04;100418.81;;;32.49;25.95
58072;BME280;60383;46.626;18.866;2022-08-03T12:38:36;100419.50;;;32.60;25.65
58072;BME280;60383;46.626;18.866;2022-08-03T12:41:07;100423.19;;;32.80;25.25
58072;BME280;60383;46.626;18.866;2022-08-03T12:43:46;100407.16;;;32.89;25.07
58072;BME280;60383;46.626;18.866;2022-08-03T12:46:17;100414.38;;;33.34;24.68
58072;BME280;60383;46.626;18.866;2022-08-03T12:51:36;100407.28;;;33.64;24.35
58072;BME280;60383;46.626;18.866;2022-08-03T12:54:03;100400.56;;;32.94;25.14
58072;BME280;60383;46.626;18.866;2022-08-03T12:56:28;100404.84;;;32.72;25.10
58072;BME280;60383;46.626;18.866;2022-08-03T12:58:54;100410.06;;;32.46;25.35
58072;BME280;60383;46.626;18.866;2022-08-03T13:01:20;100403.69;;;32.73;25.04
58072;BME280;60383;46.626;18.866;2022-08-03T13:03:49;100399.81;;;32.88;24.48
58072;BME280;60383;46.626;18.866;2022-08-03T13:06:17;100394.94;;;33.08;24.05
58072;BME280;60383;46.626;18.866;2022-08-03T13:08:44;100391.47;;;33.44;22.92
58072;BME280;60383;46.626;18.866;2022-08-03T13:11:21;100396.72;;;33.37;23.45
58072;BME280;60383;46.626;18.866;2022-08-03T13:13:48;100386.44;;;33.41;23.84
58072;BME280;60383;46.626;18.866;2022-08-03T13:16:14;100385.41;;;32.85;24.72
58072;BME280;60383;46.626;18.866;2022-08-03T13:18:39;100382.16;;;33.24;24.27
58072;BME280;60383;46.626;18.866;2022-08-03T13:21:05;100379.91;;;33.40;23.46
58072;BME280;60383;46.626;18.866;2022-08-03T13:23:30;100370.78;;;33.57;23.40
58072;BME280;60383;46.626;18.866;2022-08-03T13:25:56;100371.53;;;33.63;23.09
58072;BME280;60383;46.626;18.866;2022-08-03T13:28:22;100373.03;;;33.88;23.11
58072;BME280;60383;46.626;18.866;2022-08-03T13:30:47;100372.31;;;33.97;23.11
58072;BME280;60383;46.626;18.866;2022-08-03T13:33:13;100371.78;;;33.95;22.88
58072;BME280;60383;46.626;18.866;2022-08-03T13:35:38;100374.50;;;33.86;21.74
58072;BME280;60383;46.626;18.866;2022-08-03T13:38:04;100373.75;;;33.66;22.41